Les articles d'ExpertMaritime.pro


Votre expert maritime indépendant Xavier Braive est disponible sur la zone de Saujon - Port de Ribérou - 17600

(Charente-Maritime - Poitou-Charentes)


Voir plan
Situation :

Le port de Ribérou est un port de pêche et de plaisance situé au fond de l'estuaire de la Seudre, à Saujon. C'est l'un des deux ports de la ville avec celui du Breuil, un peu en aval.

Actif dès le XIe siècle, il prend son aspect actuel à partir de 1842, sous l'impulsion du ministre des travaux publics de l'époque, Jules Dufaure, " enfant du pays", qui tente ainsi de relancer le commerce maritime et les activités halieutiques, alors en déclin.
Idéalement situé, en marge du centre-ville, de la base de loisirs de La Lande et des espaces préservés des marais de la Seudre (chemins de halage transformés en sentiers de promenade), il est devenu un des hauts lieux du tourisme saujonnais, où sont notamment organisés des soirées thématiques et le feu d'artifice du 14 juillet.

En 2011, le port de Ribérou a été l'objet d'un important programme de rénovation urbaine conduit par l'architecte-urbaniste Sophie Blanchet, complétant des efforts déjà mis en œuvre en centre-ville.
Une partie du site est reconvertie en esplanade piétonne, dotée d'un mobilier urbain contemporain : il se veut une sorte de "trait d'union" entre la base de loisirs de La Lande (piscine, tennis, boulodrome, stade, terrain de basket...), les sentiers de promenade et de découverte des marais de la Seudre, qui débutent au port, et le centre-ville.
L'inauguration du nouveau port a lieu le 18 août 2012, en présence du maire, Pascal Ferchaud, et d'une foule nombreuse venue profiter des animations : concerts, jeux nautiques, joutes, etc.

Aujourd'hui, le port de Ribérou est un petit port de pêche et de plaisance. C'est également une base de départ pour certains sports nautiques (canoë-kayak). Sa longueur est d'environ 250 mètres pour 40 mètres.
Depuis Ribérou, il est possible d'atteindre successivement les ports du Breuil (Saujon), de L'Éguille, de Mornac, de Chaillevette, de Chatressac (Chaillevette), des Grandes Roches et d'Orivol (Étaules), de La Grève à Duret et de Coux (Arvert), de La Grève (La Tremblade) et de La Cayenne (Marennes).


En 2011, la municipalité entame un programme de rénovation du site portuaire, confié à l'architecte-urbaniste Sophie Blanchet. Il consiste en une transformation des anciens parkings en esplanade piétonne, véritable espace de rencontre doté d'un mobilier urbain moderne et à terme, d'espaces verts. Depuis les quais, bordés d'immeubles bourgeois, de petites rues pittoresques et fleuries de roses trémières permettent de sillonner le quartier et de rejoindre le centre-ville.

Le pont à écluse de Ribérou, dit « pont des eaux contraires », a été rénové en 2010. Il marque la séparation entre les eaux de l'estuaire (côté port : eaux saumâtres) et les eaux du fleuve (côté bassin de retenue : eaux douces).



Adresse :

Mairie
1, place Denfert Rochereau
17600 SAUJON

Tél/Fax : 05 46 02 80 07 / 05 46 02 91 92

E-mail : contact@mairie-saujon.fr
Météo locale sur la zone Port de Ribérou
Heure (UTC) Dir.Vent Vit.Vent (nds) Force (Bft) T°min T°max P (mb) Hum.Rel.
20/01/2021 - 12:00:00 au 20/01/2021 - 15:00:00 177° (S) 18 5 11°C 11°C 1000 63 %
20/01/2021 - 15:00:00 au 20/01/2021 - 18:00:00 186° (S) 21 5 11°C 12°C 998 66 %
20/01/2021 - 18:00:00 au 20/01/2021 - 21:00:00 202° (SSW) 24 6 12°C 12°C 997 75 %
20/01/2021 - 21:00:00 au 21/01/2021 - 00:00:00 220° (SW) 22 6 13°C 13°C 998 78 %
21/01/2021 - 00:00:00 au 21/01/2021 - 03:00:00 245° (WSW) 19 5 12°C 12°C 1000 88 %
21/01/2021 - 03:00:00 au 21/01/2021 - 06:00:00 256° (WSW) 11 4 10°C 10°C 1002 88 %
21/01/2021 - 06:00:00 au 21/01/2021 - 09:00:00 210° (SSW) 10 3 10°C 10°C 1002 83 %
21/01/2021 - 09:00:00 au 21/01/2021 - 12:00:00 201° (SSW) 19 5 12°C 12°C 1000 80 %
21/01/2021 - 12:00:00 au 21/01/2021 - 15:00:00 217° (SW) 28 7 13°C 13°C 997 73 %
21/01/2021 - 15:00:00 au 21/01/2021 - 18:00:00 243° (WSW) 23 6 11°C 11°C 998 76 %
21/01/2021 - 18:00:00 au 21/01/2021 - 21:00:00 251° (WSW) 20 5 11°C 11°C 999 77 %
21/01/2021 - 21:00:00 au 22/01/2021 - 00:00:00 235° (SW) 15 4 11°C 11°C 998 84 %
22/01/2021 - 00:00:00 au 22/01/2021 - 03:00:00 231° (SW) 23 6 11°C 11°C 995 76 %
22/01/2021 - 03:00:00 au 22/01/2021 - 06:00:00 229° (SW) 19 5 11°C 11°C 992 82 %
22/01/2021 - 06:00:00 au 22/01/2021 - 09:00:00 329° (NNW) 13 4 7°C 7°C 993 86 %
22/01/2021 - 09:00:00 au 22/01/2021 - 12:00:00 321° (NW) 14 4 8°C 8°C 998 74 %
22/01/2021 - 12:00:00 au 22/01/2021 - 15:00:00 291° (WNW) 13 4 9°C 9°C 1001 67 %
22/01/2021 - 15:00:00 au 22/01/2021 - 18:00:00 274° (W) 11 4 8°C 8°C 1003 74 %
22/01/2021 - 18:00:00 au 22/01/2021 - 21:00:00 233° (SW) 7 3 8°C 8°C 1001 80 %
22/01/2021 - 21:00:00 au 23/01/2021 - 00:00:00 225° (SW) 8 3 8°C 8°C 1000 93 %
23/01/2021 - 00:00:00 au 23/01/2021 - 03:00:00 279° (W) 8 3 6°C 6°C 999 84 %
23/01/2021 - 03:00:00 au 23/01/2021 - 06:00:00 275° (W) 17 5 8°C 8°C 999 75 %
23/01/2021 - 06:00:00 au 23/01/2021 - 09:00:00 292° (WNW) 16 4 8°C 8°C 1002 69 %
23/01/2021 - 09:00:00 au 23/01/2021 - 12:00:00 295° (WNW) 19 5 9°C 9°C 1004 62 %
23/01/2021 - 12:00:00 au 23/01/2021 - 15:00:00 290° (WNW) 12 4 8°C 8°C 1004 65 %
23/01/2021 - 15:00:00 au 23/01/2021 - 18:00:00 278° (W) 3 1 6°C 6°C 1004 74 %
23/01/2021 - 18:00:00 au 23/01/2021 - 21:00:00 166° (SSE) 3 1 6°C 6°C 1003 76 %
23/01/2021 - 21:00:00 au 24/01/2021 - 00:00:00 177° (S) 4 2 6°C 6°C 1003 83 %
24/01/2021 - 00:00:00 au 24/01/2021 - 03:00:00 263° (W) 6 2 6°C 6°C 1004 80 %
24/01/2021 - 03:00:00 au 24/01/2021 - 06:00:00 297° (WNW) 8 3 6°C 6°C 1005 78 %
24/01/2021 - 06:00:00 au 24/01/2021 - 09:00:00 307° (NW) 12 4 7°C 7°C 1007 75 %
24/01/2021 - 09:00:00 au 24/01/2021 - 12:00:00 312° (NW) 15 4 8°C 8°C 1009 67 %
24/01/2021 - 12:00:00 au 24/01/2021 - 15:00:00 289° (WNW) 14 4 7°C 7°C 1009 78 %
24/01/2021 - 15:00:00 au 24/01/2021 - 18:00:00 304° (NW) 14 4 7°C 7°C 1011 78 %
24/01/2021 - 18:00:00 au 24/01/2021 - 21:00:00 316° (NW) 12 4 6°C 6°C 1013 75 %
24/01/2021 - 21:00:00 au 25/01/2021 - 00:00:00 328° (NNW) 7 3 5°C 5°C 1015 74 %
25/01/2021 - 00:00:00 au 25/01/2021 - 03:00:00 303° (WNW) 6 2 6°C 6°C 1016 73 %
25/01/2021 - 03:00:00 au 25/01/2021 - 06:00:00 296° (WNW) 5 2 5°C 5°C 1017 75 %
25/01/2021 - 06:00:00 au 25/01/2021 - 09:00:00 292° (WNW) 3 1 7°C 7°C 1019 75 %
25/01/2021 - 09:00:00 au 25/01/2021 - 12:00:00 294° (WNW) 7 3 9°C 9°C 1021 63 %
openweathermap
Ces informations sont partiellement extraites de Wikipedia, et des sites pertinents pour cette zone. Compilation d'informations de Xavier Braive.
Xavier Braive, Expert Maritime Plaisance se déplace sur Port de Ribérou, Saujon, 17600, Charente-Maritime

Welcome to Cross-Channel yachtmen !

we can deliver survey reports in english, in case of dammage or prior to buy / sell a boat in France (pre-purchase survey), and more specifically on the Atlantic coast.

Uw onafhankelijk jachtexpert

verkrijkbaar op de Atlantische kust, bij aankoop of reparatie van jachten (metaal, polyester of composiet). Rapporten in Nederlands

BRAIVE, Xavier
Xavier Braive
Expert Maritime
Nouvelle Aquitaine
France
06 71 50 20 17